sensor_id;sensor_type;location;lat;lon;timestamp;P1;durP1;ratioP1;P2;durP2;ratioP2
7647;SDS011;3866;48.020;11.720;2023-06-10T00:00:27;8.87;;;7.90;;
7647;SDS011;3866;48.020;11.720;2023-06-10T00:02:56;9.23;;;7.17;;
7647;SDS011;3866;48.020;11.720;2023-06-10T00:05:24;15.63;;;7.80;;
7647;SDS011;3866;48.020;11.720;2023-06-10T00:07:55;8.20;;;7.40;;
7647;SDS011;3866;48.020;11.720;2023-06-10T00:10:22;8.70;;;7.63;;
7647;SDS011;3866;48.020;11.720;2023-06-10T00:12:49;7.33;;;6.70;;
7647;SDS011;3866;48.020;11.720;2023-06-10T00:15:18;9.70;;;7.30;;
7647;SDS011;3866;48.020;11.720;2023-06-10T00:17:45;7.27;;;6.67;;
7647;SDS011;3866;48.020;11.720;2023-06-10T00:20:11;7.87;;;7.07;;
7647;SDS011;3866;48.020;11.720;2023-06-10T00:22:38;7.30;;;6.60;;
7647;SDS011;3866;48.020;11.720;2023-06-10T00:25:06;7.80;;;6.93;;
7647;SDS011;3866;48.020;11.720;2023-06-10T00:27:34;8.83;;;7.30;;
7647;SDS011;3866;48.020;11.720;2023-06-10T00:30:01;8.90;;;7.97;;
7647;SDS011;3866;48.020;11.720;2023-06-10T00:32:33;8.20;;;7.40;;
7647;SDS011;3866;48.020;11.720;2023-06-10T00:35:00;9.27;;;8.27;;
7647;SDS011;3866;48.020;11.720;2023-06-10T00:37:27;9.47;;;8.47;;
7647;SDS011;3866;48.020;11.720;2023-06-10T00:39:55;13.27;;;8.20;;
7647;SDS011;3866;48.020;11.720;2023-06-10T00:42:22;7.87;;;7.10;;
7647;SDS011;3866;48.020;11.720;2023-06-10T00:44:49;8.30;;;7.50;;
7647;SDS011;3866;48.020;11.720;2023-06-10T00:47:16;6.87;;;6.23;;
7647;SDS011;3866;48.020;11.720;2023-06-10T00:49:45;7.00;;;6.40;;
7647;SDS011;3866;48.020;11.720;2023-06-10T00:52:13;9.53;;;6.70;;
7647;SDS011;3866;48.020;11.720;2023-06-10T00:54:40;7.47;;;6.73;;
7647;SDS011;3866;48.020;11.720;2023-06-10T00:57:08;7.20;;;6.60;;
7647;SDS011;3866;48.020;11.720;2023-06-10T00:59:34;7.70;;;7.00;;
7647;SDS011;3866;48.020;11.720;2023-06-10T01:02:03;8.00;;;7.20;;
7647;SDS011;3866;48.020;11.720;2023-06-10T01:04:30;8.03;;;7.23;;
7647;SDS011;3866;48.020;11.720;2023-06-10T01:07:00;7.27;;;6.67;;
7647;SDS011;3866;48.020;11.720;2023-06-10T01:09:37;6.77;;;6.10;;
7647;SDS011;3866;48.020;11.720;2023-06-10T01:12:10;7.70;;;7.00;;
7647;SDS011;3866;48.020;11.720;2023-06-10T01:14:52;7.63;;;6.93;;
7647;SDS011;3866;48.020;11.720;2023-06-10T01:17:20;8.40;;;7.60;;
7647;SDS011;3866;48.020;11.720;2023-06-10T01:19:52;10.50;;;8.17;;
7647;SDS011;3866;48.020;11.720;2023-06-10T01:22:22;8.47;;;7.50;;
7647;SDS011;3866;48.020;11.720;2023-06-10T01:24:51;8.00;;;7.30;;
7647;SDS011;3866;48.020;11.720;2023-06-10T01:27:19;8.90;;;8.00;;
7647;SDS011;3866;48.020;11.720;2023-06-10T01:29:50;6.87;;;6.23;;
7647;SDS011;3866;48.020;11.720;2023-06-10T01:32:23;7.50;;;6.80;;
7647;SDS011;3866;48.020;11.720;2023-06-10T01:34:56;7.83;;;6.77;;
7647;SDS011;3866;48.020;11.720;2023-06-10T01:37:26;6.30;;;5.80;;
7647;SDS011;3866;48.020;11.720;2023-06-10T01:39:54;7.90;;;7.20;;
7647;SDS011;3866;48.020;11.720;2023-06-10T01:42:23;7.93;;;7.13;;
7647;SDS011;3866;48.020;11.720;2023-06-10T01:44:51;7.80;;;6.87;;
7647;SDS011;3866;48.020;11.720;2023-06-10T01:47:19;8.67;;;7.83;;
7647;SDS011;3866;48.020;11.720;2023-06-10T01:49:45;8.23;;;7.37;;
7647;SDS011;3866;48.020;11.720;2023-06-10T01:52:12;8.40;;;7.60;;
7647;SDS011;3866;48.020;11.720;2023-06-10T01:54:41;8.40;;;7.60;;
7647;SDS011;3866;48.020;11.720;2023-06-10T01:57:07;8.03;;;7.33;;
7647;SDS011;3866;48.020;11.720;2023-06-10T01:59:34;8.33;;;7.63;;
7647;SDS011;3866;48.020;11.720;2023-06-10T02:02:03;8.27;;;7.47;;
7647;SDS011;3866;48.020;11.720;2023-06-10T02:04:30;8.63;;;7.40;;
7647;SDS011;3866;48.020;11.720;2023-06-10T02:06:57;8.97;;;8.07;;
7647;SDS011;3866;48.020;11.720;2023-06-10T02:09:24;8.37;;;7.57;;
7647;SDS011;3866;48.020;11.720;2023-06-10T02:11:52;8.37;;;7.57;;
7647;SDS011;3866;48.020;11.720;2023-06-10T02:14:19;8.27;;;7.50;;
7647;SDS011;3866;48.020;11.720;2023-06-10T02:16:46;8.63;;;7.43;;
7647;SDS011;3866;48.020;11.720;2023-06-10T02:19:13;8.90;;;7.93;;
7647;SDS011;3866;48.020;11.720;2023-06-10T02:21:39;8.20;;;7.50;;
7647;SDS011;3866;48.020;11.720;2023-06-10T02:24:06;7.97;;;7.33;;
7647;SDS011;3866;48.020;11.720;2023-06-10T02:26:34;8.20;;;7.40;;
7647;SDS011;3866;48.020;11.720;2023-06-10T02:29:02;8.17;;;7.47;;
7647;SDS011;3866;48.020;11.720;2023-06-10T02:31:29;7.80;;;7.10;;
7647;SDS011;3866;48.020;11.720;2023-06-10T02:33:56;8.27;;;7.40;;
7647;SDS011;3866;48.020;11.720;2023-06-10T02:36:22;9.37;;;7.17;;
7647;SDS011;3866;48.020;11.720;2023-06-10T02:38:52;7.43;;;6.83;;
7647;SDS011;3866;48.020;11.720;2023-06-10T02:41:19;9.97;;;7.37;;
7647;SDS011;3866;48.020;11.720;2023-06-10T02:43:47;7.23;;;6.63;;
7647;SDS011;3866;48.020;11.720;2023-06-10T02:46:15;8.30;;;7.50;;
7647;SDS011;3866;48.020;11.720;2023-06-10T02:48:42;7.67;;;6.97;;
7647;SDS011;3866;48.020;11.720;2023-06-10T02:51:09;8.47;;;7.67;;
7647;SDS011;3866;48.020;11.720;2023-06-10T02:53:36;8.60;;;7.70;;
7647;SDS011;3866;48.020;11.720;2023-06-10T02:56:03;8.60;;;7.70;;
7647;SDS011;3866;48.020;11.720;2023-06-10T02:58:30;8.13;;;7.33;;
7647;SDS011;3866;48.020;11.720;2023-06-10T03:00:57;7.97;;;7.27;;
7647;SDS011;3866;48.020;11.720;2023-06-10T03:03:25;8.30;;;7.37;;
7647;SDS011;3866;48.020;11.720;2023-06-10T03:05:52;8.40;;;7.47;;
7647;SDS011;3866;48.020;11.720;2023-06-10T03:08:19;8.57;;;7.37;;
7647;SDS011;3866;48.020;11.720;2023-06-10T03:10:46;9.47;;;8.37;;
7647;SDS011;3866;48.020;11.720;2023-06-10T03:13:13;8.87;;;7.90;;
7647;SDS011;3866;48.020;11.720;2023-06-10T03:15:40;8.20;;;7.50;;
7647;SDS011;3866;48.020;11.720;2023-06-10T03:18:07;8.77;;;7.97;;
7647;SDS011;3866;48.020;11.720;2023-06-10T03:20:35;9.47;;;8.57;;
7647;SDS011;3866;48.020;11.720;2023-06-10T03:23:02;9.20;;;7.97;;
7647;SDS011;3866;48.020;11.720;2023-06-10T03:25:30;8.80;;;8.00;;
7647;SDS011;3866;48.020;11.720;2023-06-10T03:27:57;8.30;;;7.50;;
7647;SDS011;3866;48.020;11.720;2023-06-10T03:30:23;8.20;;;7.47;;
7647;SDS011;3866;48.020;11.720;2023-06-10T03:32:50;9.40;;;8.50;;
7647;SDS011;3866;48.020;11.720;2023-06-10T03:35:17;8.57;;;7.77;;
7647;SDS011;3866;48.020;11.720;2023-06-10T03:37:45;8.20;;;7.30;;
7647;SDS011;3866;48.020;11.720;2023-06-10T03:40:12;8.07;;;7.37;;
7647;SDS011;3866;48.020;11.720;2023-06-10T03:42:39;8.70;;;7.90;;
7647;SDS011;3866;48.020;11.720;2023-06-10T03:45:06;10.93;;;8.57;;
7647;SDS011;3866;48.020;11.720;2023-06-10T03:47:34;8.47;;;7.63;;
7647;SDS011;3866;48.020;11.720;2023-06-10T03:50:02;8.30;;;7.50;;
7647;SDS011;3866;48.020;11.720;2023-06-10T03:52:29;9.70;;;8.73;;
7647;SDS011;3866;48.020;11.720;2023-06-10T03:54:57;9.87;;;8.87;;
7647;SDS011;3866;48.020;11.720;2023-06-10T03:57:24;8.40;;;7.60;;
7647;SDS011;3866;48.020;11.720;2023-06-10T03:59:51;9.53;;;8.37;;
7647;SDS011;3866;48.020;11.720;2023-06-10T04:02:18;9.93;;;8.87;;
7647;SDS011;3866;48.020;11.720;2023-06-10T04:04:45;9.57;;;8.67;;
7647;SDS011;3866;48.020;11.720;2023-06-10T04:07:12;9.33;;;8.43;;
7647;SDS011;3866;48.020;11.720;2023-06-10T04:09:39;8.70;;;7.90;;
7647;SDS011;3866;48.020;11.720;2023-06-10T04:12:07;8.33;;;7.53;;
7647;SDS011;3866;48.020;11.720;2023-06-10T04:14:35;8.97;;;8.07;;
7647;SDS011;3866;48.020;11.720;2023-06-10T04:17:03;9.03;;;8.13;;
7647;SDS011;3866;48.020;11.720;2023-06-10T04:19:31;8.67;;;7.43;;
7647;SDS011;3866;48.020;11.720;2023-06-10T04:22:00;8.40;;;7.60;;
7647;SDS011;3866;48.020;11.720;2023-06-10T04:24:27;8.90;;;8.00;;
7647;SDS011;3866;48.020;11.720;2023-06-10T04:26:54;8.70;;;7.90;;
7647;SDS011;3866;48.020;11.720;2023-06-10T04:29:22;9.00;;;8.17;;
7647;SDS011;3866;48.020;11.720;2023-06-10T04:31:49;9.13;;;8.23;;
7647;SDS011;3866;48.020;11.720;2023-06-10T04:34:16;9.77;;;8.83;;
7647;SDS011;3866;48.020;11.720;2023-06-10T04:36:42;9.53;;;8.53;;
7647;SDS011;3866;48.020;11.720;2023-06-10T04:39:09;10.13;;;9.07;;
7647;SDS011;3866;48.020;11.720;2023-06-10T04:41:36;14.53;;;12.67;;
7647;SDS011;3866;48.020;11.720;2023-06-10T04:44:03;14.40;;;12.70;;
7647;SDS011;3866;48.020;11.720;2023-06-10T04:46:31;13.07;;;11.43;;
7647;SDS011;3866;48.020;11.720;2023-06-10T04:48:58;12.07;;;10.87;;
7647;SDS011;3866;48.020;11.720;2023-06-10T04:51:25;11.00;;;9.90;;
7647;SDS011;3866;48.020;11.720;2023-06-10T04:53:52;11.90;;;10.80;;
7647;SDS011;3866;48.020;11.720;2023-06-10T04:56:19;12.17;;;11.00;;
7647;SDS011;3866;48.020;11.720;2023-06-10T04:58:46;11.97;;;10.57;;
7647;SDS011;3866;48.020;11.720;2023-06-10T05:01:13;11.80;;;10.60;;
7647;SDS011;3866;48.020;11.720;2023-06-10T05:03:41;12.27;;;11.07;;
7647;SDS011;3866;48.020;11.720;2023-06-10T05:06:08;13.13;;;10.83;;
7647;SDS011;3866;48.020;11.720;2023-06-10T05:08:35;11.33;;;10.13;;
7647;SDS011;3866;48.020;11.720;2023-06-10T05:11:02;13.03;;;11.70;;
7647;SDS011;3866;48.020;11.720;2023-06-10T05:13:29;11.17;;;10.07;;
7647;SDS011;3866;48.020;11.720;2023-06-10T05:15:56;11.47;;;9.87;;
7647;SDS011;3866;48.020;11.720;2023-06-10T05:18:22;12.10;;;10.63;;
7647;SDS011;3866;48.020;11.720;2023-06-10T05:20:51;11.80;;;10.57;;
7647;SDS011;3866;48.020;11.720;2023-06-10T05:23:18;11.87;;;10.67;;
7647;SDS011;3866;48.020;11.720;2023-06-10T05:25:45;11.77;;;10.67;;
7647;SDS011;3866;48.020;11.720;2023-06-10T05:28:13;11.90;;;10.70;;
7647;SDS011;3866;48.020;11.720;2023-06-10T05:30:39;12.33;;;11.03;;
7647;SDS011;3866;48.020;11.720;2023-06-10T05:33:06;12.33;;;11.13;;
7647;SDS011;3866;48.020;11.720;2023-06-10T05:35:33;13.50;;;11.23;;
7647;SDS011;3866;48.020;11.720;2023-06-10T05:38:02;13.37;;;10.50;;
7647;SDS011;3866;48.020;11.720;2023-06-10T05:40:29;12.37;;;11.13;;
7647;SDS011;3866;48.020;11.720;2023-06-10T05:42:56;12.70;;;11.20;;
7647;SDS011;3866;48.020;11.720;2023-06-10T05:45:22;12.13;;;10.87;;
7647;SDS011;3866;48.020;11.720;2023-06-10T05:47:49;12.27;;;10.97;;
7647;SDS011;3866;48.020;11.720;2023-06-10T05:50:16;12.30;;;10.70;;
7647;SDS011;3866;48.020;11.720;2023-06-10T05:52:43;13.17;;;10.80;;
7647;SDS011;3866;48.020;11.720;2023-06-10T05:55:11;13.20;;;11.77;;
7647;SDS011;3866;48.020;11.720;2023-06-10T05:57:40;12.70;;;11.40;;
7647;SDS011;3866;48.020;11.720;2023-06-10T06:00:08;12.40;;;11.20;;
7647;SDS011;3866;48.020;11.720;2023-06-10T06:02:35;11.97;;;10.63;;
7647;SDS011;3866;48.020;11.720;2023-06-10T06:05:02;11.53;;;10.37;;
7647;SDS011;3866;48.020;11.720;2023-06-10T06:07:29;12.97;;;11.60;;
7647;SDS011;3866;48.020;11.720;2023-06-10T06:09:56;12.70;;;11.40;;
7647;SDS011;3866;48.020;11.720;2023-06-10T06:12:24;13.07;;;11.10;;
7647;SDS011;3866;48.020;11.720;2023-06-10T06:14:51;11.50;;;10.40;;
7647;SDS011;3866;48.020;11.720;2023-06-10T06:17:18;11.83;;;10.47;;
7647;SDS011;3866;48.020;11.720;2023-06-10T06:19:45;12.33;;;10.37;;
7647;SDS011;3866;48.020;11.720;2023-06-10T06:22:13;11.67;;;10.47;;
7647;SDS011;3866;48.020;11.720;2023-06-10T06:24:39;12.20;;;10.67;;
7647;SDS011;3866;48.020;11.720;2023-06-10T06:27:06;11.43;;;10.27;;
7647;SDS011;3866;48.020;11.720;2023-06-10T06:29:34;11.20;;;10.03;;
7647;SDS011;3866;48.020;11.720;2023-06-10T06:32:01;11.37;;;10.27;;
7647;SDS011;3866;48.020;11.720;2023-06-10T06:34:28;11.53;;;9.87;;
7647;SDS011;3866;48.020;11.720;2023-06-10T06:36:55;12.73;;;9.73;;
7647;SDS011;3866;48.020;11.720;2023-06-10T06:39:22;11.47;;;9.70;;
7647;SDS011;3866;48.020;11.720;2023-06-10T06:41:49;12.10;;;9.83;;
7647;SDS011;3866;48.020;11.720;2023-06-10T06:44:16;12.47;;;9.93;;
7647;SDS011;3866;48.020;11.720;2023-06-10T06:46:44;11.87;;;9.67;;
7647;SDS011;3866;48.020;11.720;2023-06-10T06:49:11;10.63;;;9.53;;
7647;SDS011;3866;48.020;11.720;2023-06-10T06:51:37;9.70;;;8.70;;
7647;SDS011;3866;48.020;11.720;2023-06-10T06:54:04;10.57;;;9.47;;
7647;SDS011;3866;48.020;11.720;2023-06-10T06:56:31;9.87;;;8.80;;
7647;SDS011;3866;48.020;11.720;2023-06-10T06:58:58;11.10;;;9.30;;
7647;SDS011;3866;48.020;11.720;2023-06-10T07:01:25;9.77;;;8.50;;
7647;SDS011;3866;48.020;11.720;2023-06-10T07:03:53;10.03;;;9.00;;
7647;SDS011;3866;48.020;11.720;2023-06-10T07:06:20;8.93;;;8.13;;
7647;SDS011;3866;48.020;11.720;2023-06-10T07:08:48;9.13;;;7.77;;
7647;SDS011;3866;48.020;11.720;2023-06-10T07:11:16;8.70;;;7.77;;
7647;SDS011;3866;48.020;11.720;2023-06-10T07:13:43;8.87;;;8.00;;
7647;SDS011;3866;48.020;11.720;2023-06-10T07:16:10;9.83;;;8.17;;
7647;SDS011;3866;48.020;11.720;2023-06-10T07:18:37;8.33;;;7.40;;
7647;SDS011;3866;48.020;11.720;2023-06-10T07:21:05;6.63;;;6.03;;
7647;SDS011;3866;48.020;11.720;2023-06-10T07:23:32;9.03;;;7.20;;
7647;SDS011;3866;48.020;11.720;2023-06-10T07:25:59;10.00;;;7.63;;
7647;SDS011;3866;48.020;11.720;2023-06-10T07:28:26;7.80;;;7.00;;
7647;SDS011;3866;48.020;11.720;2023-06-10T07:30:52;7.80;;;6.73;;
7647;SDS011;3866;48.020;11.720;2023-06-10T07:33:19;6.60;;;6.00;;
7647;SDS011;3866;48.020;11.720;2023-06-10T07:35:46;5.90;;;5.30;;
7647;SDS011;3866;48.020;11.720;2023-06-10T07:38:14;7.60;;;6.20;;
7647;SDS011;3866;48.020;11.720;2023-06-10T07:40:41;5.93;;;5.33;;
7647;SDS011;3866;48.020;11.720;2023-06-10T07:43:08;9.83;;;6.57;;
7647;SDS011;3866;48.020;11.720;2023-06-10T07:45:35;7.97;;;6.20;;
7647;SDS011;3866;48.020;11.720;2023-06-10T07:48:02;7.00;;;6.40;;
7647;SDS011;3866;48.020;11.720;2023-06-10T07:50:29;5.87;;;4.70;;
7647;SDS011;3866;48.020;11.720;2023-06-10T07:52:55;7.27;;;5.60;;
7647;SDS011;3866;48.020;11.720;2023-06-10T07:55:24;5.97;;;5.00;;
7647;SDS011;3866;48.020;11.720;2023-06-10T07:57:51;5.37;;;4.87;;
7647;SDS011;3866;48.020;11.720;2023-06-10T08:00:18;5.53;;;4.73;;
7647;SDS011;3866;48.020;11.720;2023-06-10T08:02:45;4.60;;;4.30;;
7647;SDS011;3866;48.020;11.720;2023-06-10T08:05:12;4.70;;;4.37;;
7647;SDS011;3866;48.020;11.720;2023-06-10T08:07:39;5.87;;;5.37;;
7647;SDS011;3866;48.020;11.720;2023-06-10T08:10:07;5.30;;;4.90;;
7647;SDS011;3866;48.020;11.720;2023-06-10T08:12:35;5.07;;;4.57;;
7647;SDS011;3866;48.020;11.720;2023-06-10T08:15:03;4.47;;;3.90;;
7647;SDS011;3866;48.020;11.720;2023-06-10T08:17:30;5.87;;;4.63;;
7647;SDS011;3866;48.020;11.720;2023-06-10T08:19:57;6.70;;;5.40;;
7647;SDS011;3866;48.020;11.720;2023-06-10T08:22:24;5.60;;;4.37;;
7647;SDS011;3866;48.020;11.720;2023-06-10T08:24:51;5.10;;;4.70;;
7647;SDS011;3866;48.020;11.720;2023-06-10T08:27:18;7.17;;;4.10;;
7647;SDS011;3866;48.020;11.720;2023-06-10T08:29:46;5.00;;;4.60;;
7647;SDS011;3866;48.020;11.720;2023-06-10T08:32:13;4.53;;;4.20;;
7647;SDS011;3866;48.020;11.720;2023-06-10T08:34:40;6.07;;;5.17;;
7647;SDS011;3866;48.020;11.720;2023-06-10T08:37:06;5.40;;;4.97;;
7647;SDS011;3866;48.020;11.720;2023-06-10T08:39:33;5.30;;;4.90;;
7647;SDS011;3866;48.020;11.720;2023-06-10T08:42:05;4.60;;;4.20;;
7647;SDS011;3866;48.020;11.720;2023-06-10T08:44:37;5.50;;;5.00;;
7647;SDS011;3866;48.020;11.720;2023-06-10T08:47:08;5.57;;;5.13;;
7647;SDS011;3866;48.020;11.720;2023-06-10T08:49:41;5.37;;;4.87;;
7647;SDS011;3866;48.020;11.720;2023-06-10T08:52:11;4.40;;;4.00;;
7647;SDS011;3866;48.020;11.720;2023-06-10T08:54:42;5.00;;;4.60;;
7647;SDS011;3866;48.020;11.720;2023-06-10T08:57:13;4.90;;;4.40;;
7647;SDS011;3866;48.020;11.720;2023-06-10T08:59:41;3.93;;;3.63;;
7647;SDS011;3866;48.020;11.720;2023-06-10T09:02:09;3.00;;;2.80;;
7647;SDS011;3866;48.020;11.720;2023-06-10T09:04:36;3.97;;;3.57;;
7647;SDS011;3866;48.020;11.720;2023-06-10T09:07:04;3.47;;;3.17;;
7647;SDS011;3866;48.020;11.720;2023-06-10T09:09:32;5.33;;;3.80;;
7647;SDS011;3866;48.020;11.720;2023-06-10T09:12:02;9.33;;;3.90;;
7647;SDS011;3866;48.020;11.720;2023-06-10T09:14:30;5.70;;;3.80;;
7647;SDS011;3866;48.020;11.720;2023-06-10T09:16:56;4.67;;;3.50;;
7647;SDS011;3866;48.020;11.720;2023-06-10T09:19:25;5.00;;;3.60;;
7647;SDS011;3866;48.020;11.720;2023-06-10T09:21:53;3.87;;;3.57;;
7647;SDS011;3866;48.020;11.720;2023-06-10T09:24:20;3.70;;;3.40;;
7647;SDS011;3866;48.020;11.720;2023-06-10T09:26:48;3.80;;;3.50;;
7647;SDS011;3866;48.020;11.720;2023-06-10T09:29:16;3.87;;;3.50;;
7647;SDS011;3866;48.020;11.720;2023-06-10T09:31:43;6.03;;;3.13;;
7647;SDS011;3866;48.020;11.720;2023-06-10T09:34:11;3.50;;;3.20;;
7647;SDS011;3866;48.020;11.720;2023-06-10T09:36:41;3.57;;;3.30;;
7647;SDS011;3866;48.020;11.720;2023-06-10T09:39:13;3.63;;;3.33;;
7647;SDS011;3866;48.020;11.720;2023-06-10T09:41:41;3.50;;;3.27;;
7647;SDS011;3866;48.020;11.720;2023-06-10T09:44:09;3.80;;;3.50;;
7647;SDS011;3866;48.020;11.720;2023-06-10T09:46:38;3.33;;;3.03;;
7647;SDS011;3866;48.020;11.720;2023-06-10T09:49:05;3.67;;;3.37;;
7647;SDS011;3866;48.020;11.720;2023-06-10T09:51:32;3.90;;;3.17;;
7647;SDS011;3866;48.020;11.720;2023-06-10T09:54:01;3.90;;;3.60;;
7647;SDS011;3866;48.020;11.720;2023-06-10T09:56:32;3.70;;;3.30;;
7647;SDS011;3866;48.020;11.720;2023-06-10T09:59:00;3.43;;;3.13;;
7647;SDS011;3866;48.020;11.720;2023-06-10T10:01:27;3.80;;;3.50;;
7647;SDS011;3866;48.020;11.720;2023-06-10T10:03:53;4.33;;;3.20;;
7647;SDS011;3866;48.020;11.720;2023-06-10T10:06:20;3.20;;;3.00;;
7647;SDS011;3866;48.020;11.720;2023-06-10T10:08:48;3.30;;;3.00;;
7647;SDS011;3866;48.020;11.720;2023-06-10T10:11:18;3.23;;;3.03;;
7647;SDS011;3866;48.020;11.720;2023-06-10T10:13:46;3.13;;;2.90;;
7647;SDS011;3866;48.020;11.720;2023-06-10T10:16:16;3.63;;;3.33;;
7647;SDS011;3866;48.020;11.720;2023-06-10T10:18:46;3.33;;;2.87;;
7647;SDS011;3866;48.020;11.720;2023-06-10T10:21:17;2.80;;;2.60;;
7647;SDS011;3866;48.020;11.720;2023-06-10T10:23:51;3.53;;;3.13;;
7647;SDS011;3866;48.020;11.720;2023-06-10T10:26:23;3.60;;;2.93;;
7647;SDS011;3866;48.020;11.720;2023-06-10T10:28:55;3.63;;;3.33;;
7647;SDS011;3866;48.020;11.720;2023-06-10T10:31:31;4.13;;;3.73;;
7647;SDS011;3866;48.020;11.720;2023-06-10T10:34:01;5.60;;;5.10;;
7647;SDS011;3866;48.020;11.720;2023-06-10T10:36:32;4.73;;;3.50;;
7647;SDS011;3866;48.020;11.720;2023-06-10T10:39:00;4.27;;;3.87;;
7647;SDS011;3866;48.020;11.720;2023-06-10T10:41:29;3.83;;;3.53;;
7647;SDS011;3866;48.020;11.720;2023-06-10T10:43:57;3.90;;;3.27;;
7647;SDS011;3866;48.020;11.720;2023-06-10T10:46:25;4.20;;;3.67;;
7647;SDS011;3866;48.020;11.720;2023-06-10T10:48:53;3.53;;;3.30;;
7647;SDS011;3866;48.020;11.720;2023-06-10T10:51:20;3.50;;;3.00;;
7647;SDS011;3866;48.020;11.720;2023-06-10T10:56:40;3.63;;;2.73;;
7647;SDS011;3866;48.020;11.720;2023-06-10T10:59:43;3.07;;;2.67;;
7647;SDS011;3866;48.020;11.720;2023-06-10T11:02:14;3.27;;;2.80;;
7647;SDS011;3866;48.020;11.720;2023-06-10T11:04:44;2.97;;;2.63;;
7647;SDS011;3866;48.020;11.720;2023-06-10T11:07:12;2.63;;;2.43;;
7647;SDS011;3866;48.020;11.720;2023-06-10T11:09:47;3.50;;;3.20;;
7647;SDS011;3866;48.020;11.720;2023-06-10T11:12:26;10.63;;;3.57;;
7647;SDS011;3866;48.020;11.720;2023-06-10T11:15:05;3.43;;;3.13;;
7647;SDS011;3866;48.020;11.720;2023-06-10T11:17:32;2.87;;;2.67;;
7647;SDS011;3866;48.020;11.720;2023-06-10T11:19:59;2.70;;;2.50;;
7647;SDS011;3866;48.020;11.720;2023-06-10T11:22:26;2.33;;;2.17;;
7647;SDS011;3866;48.020;11.720;2023-06-10T11:24:53;2.47;;;2.27;;
7647;SDS011;3866;48.020;11.720;2023-06-10T11:27:20;2.63;;;2.43;;
7647;SDS011;3866;48.020;11.720;2023-06-10T11:29:56;2.93;;;2.47;;
7647;SDS011;3866;48.020;11.720;2023-06-10T11:32:44;2.63;;;2.43;;
7647;SDS011;3866;48.020;11.720;2023-06-10T11:35:16;2.87;;;2.60;;
7647;SDS011;3866;48.020;11.720;2023-06-10T11:37:45;2.80;;;2.60;;
7647;SDS011;3866;48.020;11.720;2023-06-10T11:40:13;2.80;;;2.60;;
7647;SDS011;3866;48.020;11.720;2023-06-10T11:42:40;3.00;;;2.80;;
7647;SDS011;3866;48.020;11.720;2023-06-10T11:45:14;2.67;;;2.47;;
7647;SDS011;3866;48.020;11.720;2023-06-10T11:47:42;2.57;;;2.13;;
7647;SDS011;3866;48.020;11.720;2023-06-10T11:50:27;2.67;;;2.40;;
7647;SDS011;3866;48.020;11.720;2023-06-10T11:52:55;2.50;;;2.30;;
7647;SDS011;3866;48.020;11.720;2023-06-10T11:55:23;2.40;;;2.20;;
7647;SDS011;3866;48.020;11.720;2023-06-10T11:57:50;2.00;;;1.90;;
7647;SDS011;3866;48.020;11.720;2023-06-10T12:00:23;2.97;;;2.30;;
7647;SDS011;3866;48.020;11.720;2023-06-10T12:02:57;2.27;;;2.13;;
7647;SDS011;3866;48.020;11.720;2023-06-10T12:05:24;3.30;;;2.17;;
7647;SDS011;3866;48.020;11.720;2023-06-10T12:10:40;2.77;;;2.57;;
7647;SDS011;3866;48.020;11.720;2023-06-10T12:13:07;2.13;;;2.03;;
7647;SDS011;3866;48.020;11.720;2023-06-10T12:15:36;2.80;;;2.60;;
7647;SDS011;3866;48.020;11.720;2023-06-10T12:18:03;2.57;;;2.37;;
7647;SDS011;3866;48.020;11.720;2023-06-10T12:20:31;2.50;;;1.87;;
7647;SDS011;3866;48.020;11.720;2023-06-10T12:22:59;2.47;;;2.27;;
7647;SDS011;3866;48.020;11.720;2023-06-10T12:25:26;2.90;;;2.70;;
7647;SDS011;3866;48.020;11.720;2023-06-10T12:27:55;2.70;;;2.50;;
7647;SDS011;3866;48.020;11.720;2023-06-10T12:30:24;3.30;;;2.30;;
7647;SDS011;3866;48.020;11.720;2023-06-10T12:32:54;2.47;;;2.37;;
7647;SDS011;3866;48.020;11.720;2023-06-10T12:35:22;4.83;;;2.67;;
7647;SDS011;3866;48.020;11.720;2023-06-10T12:37:57;3.03;;;2.37;;
7647;SDS011;3866;48.020;11.720;2023-06-10T12:40:26;2.80;;;2.23;;
7647;SDS011;3866;48.020;11.720;2023-06-10T12:42:54;2.13;;;2.03;;
7647;SDS011;3866;48.020;11.720;2023-06-10T12:45:26;2.27;;;2.13;;
7647;SDS011;3866;48.020;11.720;2023-06-10T12:48:04;3.53;;;2.30;;
7647;SDS011;3866;48.020;11.720;2023-06-10T12:50:34;2.80;;;2.60;;
7647;SDS011;3866;48.020;11.720;2023-06-10T12:53:02;2.50;;;2.30;;
7647;SDS011;3866;48.020;11.720;2023-06-10T12:55:29;2.77;;;2.60;;
7647;SDS011;3866;48.020;11.720;2023-06-10T12:57:56;3.10;;;2.50;;
7647;SDS011;3866;48.020;11.720;2023-06-10T13:00:23;2.40;;;2.20;;
7647;SDS011;3866;48.020;11.720;2023-06-10T13:02:51;2.90;;;2.40;;
7647;SDS011;3866;48.020;11.720;2023-06-10T13:05:19;3.10;;;2.60;;
7647;SDS011;3866;48.020;11.720;2023-06-10T13:07:46;2.83;;;2.63;;
7647;SDS011;3866;48.020;11.720;2023-06-10T13:10:14;3.20;;;2.90;;
7647;SDS011;3866;48.020;11.720;2023-06-10T13:12:41;3.67;;;3.30;;
7647;SDS011;3866;48.020;11.720;2023-06-10T13:15:09;3.10;;;2.90;;
7647;SDS011;3866;48.020;11.720;2023-06-10T13:17:36;2.93;;;2.73;;
7647;SDS011;3866;48.020;11.720;2023-06-10T13:20:04;3.10;;;2.90;;
7647;SDS011;3866;48.020;11.720;2023-06-10T13:22:34;3.17;;;2.97;;
7647;SDS011;3866;48.020;11.720;2023-06-10T13:25:01;5.07;;;3.57;;
7647;SDS011;3866;48.020;11.720;2023-06-10T13:27:29;4.33;;;3.60;;
7647;SDS011;3866;48.020;11.720;2023-06-10T13:29:56;3.47;;;3.17;;
7647;SDS011;3866;48.020;11.720;2023-06-10T13:32:23;4.23;;;3.93;;
7647;SDS011;3866;48.020;11.720;2023-06-10T13:34:50;5.03;;;3.53;;
7647;SDS011;3866;48.020;11.720;2023-06-10T13:37:18;3.77;;;3.47;;
7647;SDS011;3866;48.020;11.720;2023-06-10T13:39:46;5.27;;;3.60;;
7647;SDS011;3866;48.020;11.720;2023-06-10T13:42:15;3.93;;;3.03;;
7647;SDS011;3866;48.020;11.720;2023-06-10T13:44:42;3.67;;;3.33;;
7647;SDS011;3866;48.020;11.720;2023-06-10T13:47:09;3.97;;;3.67;;
7647;SDS011;3866;48.020;11.720;2023-06-10T13:49:36;3.70;;;3.07;;
7647;SDS011;3866;48.020;11.720;2023-06-10T13:52:04;3.60;;;2.93;;
7647;SDS011;3866;48.020;11.720;2023-06-10T13:54:31;2.80;;;2.60;;
7647;SDS011;3866;48.020;11.720;2023-06-10T13:57:00;3.10;;;2.83;;
7647;SDS011;3866;48.020;11.720;2023-06-10T13:59:27;3.30;;;3.00;;
7647;SDS011;3866;48.020;11.720;2023-06-10T14:01:53;3.00;;;2.80;;
7647;SDS011;3866;48.020;11.720;2023-06-10T14:04:20;3.13;;;2.93;;
7647;SDS011;3866;48.020;11.720;2023-06-10T14:06:47;3.93;;;2.43;;
7647;SDS011;3866;48.020;11.720;2023-06-10T14:09:14;3.10;;;2.90;;
7647;SDS011;3866;48.020;11.720;2023-06-10T14:11:41;2.70;;;2.50;;
7647;SDS011;3866;48.020;11.720;2023-06-10T14:14:10;2.60;;;2.50;;
7647;SDS011;3866;48.020;11.720;2023-06-10T14:16:37;2.60;;;2.40;;
7647;SDS011;3866;48.020;11.720;2023-06-10T14:19:03;2.83;;;2.37;;
7647;SDS011;3866;48.020;11.720;2023-06-10T14:21:30;3.00;;;2.80;;
7647;SDS011;3866;48.020;11.720;2023-06-10T14:23:57;2.43;;;2.23;;
7647;SDS011;3866;48.020;11.720;2023-06-10T14:26:24;2.70;;;2.50;;
7647;SDS011;3866;48.020;11.720;2023-06-10T14:28:51;3.67;;;2.63;;
7647;SDS011;3866;48.020;11.720;2023-06-10T14:31:19;2.57;;;2.40;;
7647;SDS011;3866;48.020;11.720;2023-06-10T14:33:46;2.90;;;2.70;;
7647;SDS011;3866;48.020;11.720;2023-06-10T14:36:13;2.20;;;2.00;;
7647;SDS011;3866;48.020;11.720;2023-06-10T14:38:40;2.60;;;2.40;;
7647;SDS011;3866;48.020;11.720;2023-06-10T14:41:07;2.80;;;2.60;;
7647;SDS011;3866;48.020;11.720;2023-06-10T14:43:34;2.53;;;2.33;;
7647;SDS011;3866;48.020;11.720;2023-06-10T14:46:01;3.10;;;2.90;;
7647;SDS011;3866;48.020;11.720;2023-06-10T14:48:30;2.67;;;2.47;;
7647;SDS011;3866;48.020;11.720;2023-06-10T14:50:56;2.80;;;2.60;;
7647;SDS011;3866;48.020;11.720;2023-06-10T14:53:24;3.00;;;2.80;;
7647;SDS011;3866;48.020;11.720;2023-06-10T14:55:51;3.50;;;2.90;;
7647;SDS011;3866;48.020;11.720;2023-06-10T14:58:17;3.00;;;2.70;;
7647;SDS011;3866;48.020;11.720;2023-06-10T15:00:44;2.80;;;2.60;;
7647;SDS011;3866;48.020;11.720;2023-06-10T15:03:11;3.37;;;3.07;;
7647;SDS011;3866;48.020;11.720;2023-06-10T15:05:39;3.20;;;2.90;;
7647;SDS011;3866;48.020;11.720;2023-06-10T15:08:06;3.17;;;2.97;;